Bom Jesus dos Perdoes, Brazil
Current Conditions -  °F | °C
As of 11:00 AM on Saturday 25 Oct 2014 (Local Time) from SBGR Reporting Station
Broken Clouds Broken Clouds  
Wind Chill: 73°   Ceiling: 2300
Heat Index: 73°   Visibility: 4mi
Dew Point: 63°   Wind: 6mph
Humidity: 69%   Direction: 280°W
Pressure: 30.06"   Gusts: NA
Location:  23.14°S, 46.47°W
Report Text: SBGR 251300Z 28005KT 6000 BKN023 23/17 Q1018
Loading
Personal Weather Stations






























Interactive Weather Map
Tropical Storm Tracking
New forecast layout! Learn more

10-Day Weather Forecast

Advertisements
Track Severe Weather on mobile